createdAt,value
2018-07-26T00:00:37.993Z,9.90
2018-07-26T00:01:43.515Z,10.00
2018-07-26T00:02:49.046Z,9.90
2018-07-26T00:03:54.551Z,11.10
2018-07-26T00:05:00.073Z,10.30
2018-07-26T00:06:05.602Z,10.40
2018-07-26T00:07:11.105Z,10.30
2018-07-26T00:08:16.632Z,10.80
2018-07-26T00:09:22.155Z,10.80
2018-07-26T00:10:27.676Z,10.80
2018-07-26T00:11:33.193Z,11.40
2018-07-26T00:12:38.714Z,10.40
2018-07-26T00:13:44.232Z,11.30
2018-07-26T00:14:49.751Z,11.20
2018-07-26T00:15:55.282Z,10.70
2018-07-26T00:17:00.789Z,10.30
2018-07-26T00:18:06.299Z,10.40
2018-07-26T00:19:11.830Z,10.00
2018-07-26T00:20:17.347Z,10.20
2018-07-26T00:21:22.872Z,10.40
2018-07-26T00:22:28.384Z,10.10
2018-07-26T00:23:33.907Z,9.90
2018-07-26T00:24:39.427Z,9.60
2018-07-26T00:25:44.945Z,10.60
2018-07-26T00:26:50.464Z,10.40
2018-07-26T00:27:55.986Z,10.20
2018-07-26T00:29:01.509Z,9.20
2018-07-26T00:30:07.019Z,10.10
2018-07-26T00:31:12.540Z,9.70
2018-07-26T00:32:18.069Z,10.60
2018-07-26T00:33:23.580Z,10.50
2018-07-26T00:34:29.100Z,10.00
2018-07-26T00:35:34.623Z,10.30
2018-07-26T00:36:40.136Z,10.70
2018-07-26T00:37:45.659Z,11.00
2018-07-26T00:38:51.181Z,11.10
2018-07-26T00:39:56.693Z,10.70
2018-07-26T00:41:02.217Z,11.00
2018-07-26T00:42:07.733Z,10.30
2018-07-26T00:43:13.261Z,11.00
2018-07-26T00:44:18.772Z,10.70
2018-07-26T00:45:24.298Z,11.10
2018-07-26T00:46:29.824Z,10.40
2018-07-26T00:47:35.340Z,10.80
2018-07-26T00:48:40.882Z,10.80
2018-07-26T00:49:46.373Z,10.70
2018-07-26T00:50:51.895Z,10.50
2018-07-26T00:51:57.410Z,10.60
2018-07-26T00:53:02.928Z,10.00
2018-07-26T00:54:08.444Z,10.20
2018-07-26T00:55:13.966Z,9.40
2018-07-26T00:56:19.489Z,10.40
2018-07-26T00:57:25.006Z,10.00
2018-07-26T00:58:31.392Z,10.70
2018-07-26T00:59:36.043Z,10.30
2018-07-26T01:00:41.570Z,10.80
2018-07-26T01:01:47.085Z,10.30
2018-07-26T01:02:52.601Z,10.90
2018-07-26T01:03:58.121Z,10.50
2018-07-26T01:05:03.640Z,10.70
2018-07-26T01:06:09.161Z,11.40
2018-07-26T01:07:14.680Z,10.90
2018-07-26T01:08:20.207Z,11.20
2018-07-26T01:09:25.718Z,11.20
2018-07-26T01:10:31.237Z,11.40
2018-07-26T01:11:36.759Z,11.20
2018-07-26T01:12:42.278Z,11.40
2018-07-26T01:13:47.794Z,11.50
2018-07-26T01:14:53.312Z,11.40
2018-07-26T01:15:58.835Z,11.10
2018-07-26T01:17:04.381Z,11.20
2018-07-26T01:18:09.875Z,11.50
2018-07-26T01:19:15.382Z,11.80
2018-07-26T01:20:20.907Z,12.20
2018-07-26T01:21:26.424Z,11.80
2018-07-26T01:22:31.945Z,12.10
2018-07-26T01:23:37.467Z,11.50
2018-07-26T01:24:42.987Z,11.20
2018-07-26T01:25:48.512Z,11.50
2018-07-26T01:26:54.025Z,10.80
2018-07-26T01:27:59.543Z,11.10
2018-07-26T01:29:05.061Z,11.50
2018-07-26T01:30:10.593Z,10.90
2018-07-26T01:31:16.095Z,10.80
2018-07-26T01:32:21.618Z,11.70
2018-07-26T01:33:27.136Z,11.50
2018-07-26T01:34:32.655Z,11.20
2018-07-26T01:35:38.175Z,11.90
2018-07-26T01:36:43.682Z,11.20
2018-07-26T01:37:49.216Z,10.80
2018-07-26T01:38:54.729Z,10.80
2018-07-26T01:40:00.251Z,10.70
2018-07-26T01:41:05.770Z,10.90
2018-07-26T01:42:11.286Z,11.20
2018-07-26T01:43:16.812Z,11.70
2018-07-26T01:44:22.328Z,11.00
2018-07-26T01:45:27.846Z,12.30
2018-07-26T01:46:33.369Z,11.90
2018-07-26T01:47:38.882Z,12.30
2018-07-26T01:48:44.402Z,12.80
2018-07-26T01:49:49.922Z,13.90
2018-07-26T01:50:55.436Z,12.00
2018-07-26T01:52:00.958Z,12.10
2018-07-26T01:53:06.479Z,12.20
2018-07-26T01:54:12.002Z,12.40
2018-07-26T01:55:17.513Z,11.40
2018-07-26T01:56:23.035Z,11.90
2018-07-26T01:57:28.553Z,12.80
2018-07-26T01:58:34.070Z,12.10
2018-07-26T01:59:39.592Z,11.90
2018-07-26T02:00:45.112Z,11.60
2018-07-26T02:01:50.661Z,12.00
2018-07-26T02:02:56.191Z,12.90
2018-07-26T02:04:01.665Z,12.40
2018-07-26T02:05:07.184Z,12.20
2018-07-26T02:06:12.702Z,12.00
2018-07-26T02:07:18.233Z,12.70
2018-07-26T02:08:23.745Z,11.10
2018-07-26T02:09:29.262Z,11.40
2018-07-26T02:10:34.778Z,11.70
2018-07-26T02:11:40.299Z,11.40
2018-07-26T02:12:45.824Z,11.80
2018-07-26T02:13:51.338Z,11.70
2018-07-26T02:14:56.854Z,12.20
2018-07-26T02:16:02.389Z,11.20
2018-07-26T02:17:07.893Z,12.80
2018-07-26T02:18:13.410Z,12.30
2018-07-26T02:19:18.928Z,13.00
2018-07-26T02:20:24.451Z,13.30
2018-07-26T02:21:29.967Z,12.60
2018-07-26T02:22:35.483Z,11.00
2018-07-26T02:23:41.001Z,10.40
2018-07-26T02:24:46.525Z,10.60
2018-07-26T02:25:52.043Z,11.70
2018-07-26T02:26:57.561Z,11.30
2018-07-26T02:28:03.082Z,11.10
2018-07-26T02:29:08.597Z,11.70
2018-07-26T02:30:14.124Z,12.20
2018-07-26T02:31:19.643Z,11.80
2018-07-26T02:32:25.165Z,11.70
2018-07-26T02:33:30.672Z,11.80
2018-07-26T02:34:36.189Z,12.90
2018-07-26T02:35:41.718Z,12.40
2018-07-26T02:36:47.286Z,12.10
2018-07-26T02:37:52.745Z,12.20
2018-07-26T02:38:58.269Z,12.50
2018-07-26T02:40:03.785Z,12.40
2018-07-26T02:41:09.306Z,12.90
2018-07-26T02:42:14.821Z,12.60
2018-07-26T02:43:20.345Z,11.90
2018-07-26T02:44:25.857Z,11.60
2018-07-26T02:45:31.375Z,11.40
2018-07-26T02:46:36.909Z,12.60
2018-07-26T02:47:42.418Z,13.30
2018-07-26T02:48:47.941Z,12.80
2018-07-26T02:49:53.455Z,13.90
2018-07-26T02:50:58.971Z,13.20
2018-07-26T02:52:04.490Z,13.20
2018-07-26T02:53:10.015Z,13.40
2018-07-26T02:54:15.522Z,12.80
2018-07-26T02:55:21.044Z,12.30
2018-07-26T02:56:26.561Z,12.70
2018-07-26T02:57:32.080Z,12.50
2018-07-26T02:58:37.596Z,12.80
2018-07-26T02:59:43.124Z,12.90
2018-07-26T03:00:48.648Z,13.00
2018-07-26T03:01:54.157Z,12.60
2018-07-26T03:02:59.675Z,13.70
2018-07-26T03:04:05.190Z,14.00
2018-07-26T03:05:10.707Z,14.10
2018-07-26T03:06:16.234Z,14.80
2018-07-26T03:07:21.808Z,14.60
2018-07-26T03:08:27.282Z,15.90
2018-07-26T03:09:32.785Z,14.80
2018-07-26T03:10:38.311Z,12.40
2018-07-26T03:11:43.832Z,12.30
2018-07-26T03:12:49.345Z,12.40
2018-07-26T03:13:54.858Z,12.30
2018-07-26T03:15:00.378Z,12.40
2018-07-26T03:16:05.893Z,13.00
2018-07-26T03:17:11.419Z,13.80
2018-07-26T03:18:16.935Z,13.30
2018-07-26T03:19:22.454Z,13.50
2018-07-26T03:20:27.965Z,13.70
2018-07-26T03:21:33.494Z,14.00
2018-07-26T03:22:39.002Z,14.30
2018-07-26T03:23:44.524Z,13.40
2018-07-26T03:24:50.043Z,13.50
2018-07-26T03:25:55.557Z,13.20
2018-07-26T03:27:01.087Z,13.30
2018-07-26T03:28:06.592Z,13.20
2018-07-26T03:29:12.113Z,12.90
2018-07-26T03:30:17.632Z,12.80
2018-07-26T03:31:23.148Z,13.20
2018-07-26T03:32:28.667Z,13.80
2018-07-26T03:33:34.189Z,14.40
2018-07-26T03:34:39.708Z,14.00
2018-07-26T03:35:45.221Z,13.20
2018-07-26T03:36:50.740Z,14.20
2018-07-26T03:37:56.261Z,14.20
2018-07-26T03:39:01.777Z,14.90
2018-07-26T03:40:07.296Z,15.10
2018-07-26T03:41:12.814Z,14.70
2018-07-26T03:42:18.332Z,15.40
2018-07-26T03:43:23.915Z,14.80
2018-07-26T03:44:29.367Z,15.20
2018-07-26T03:45:34.888Z,15.40
2018-07-26T03:46:40.403Z,15.20
2018-07-26T03:47:45.924Z,15.10
2018-07-26T03:48:51.437Z,15.20
2018-07-26T03:49:56.954Z,14.70
2018-07-26T03:51:02.511Z,14.70
2018-07-26T03:52:07.997Z,15.40
2018-07-26T03:53:13.511Z,14.80
2018-07-26T03:54:19.028Z,14.90
2018-07-26T03:55:24.545Z,15.10
2018-07-26T03:56:30.069Z,14.90
2018-07-26T03:57:35.589Z,15.10
2018-07-26T03:58:41.110Z,16.40
2018-07-26T03:59:46.620Z,15.80
2018-07-26T04:00:52.136Z,13.70
2018-07-26T04:01:57.645Z,14.00
2018-07-26T04:03:03.186Z,15.50
2018-07-26T04:04:08.692Z,14.60
2018-07-26T04:05:14.209Z,16.10
2018-07-26T04:06:19.736Z,16.80
2018-07-26T04:07:25.247Z,16.70
2018-07-26T04:08:30.763Z,15.10
2018-07-26T04:09:36.283Z,14.40
2018-07-26T04:10:41.806Z,14.00
2018-07-26T04:11:47.319Z,14.70
2018-07-26T04:12:52.846Z,14.20
2018-07-26T04:13:58.360Z,15.00
2018-07-26T04:15:03.878Z,14.30
2018-07-26T04:16:09.395Z,14.90
2018-07-26T04:17:14.907Z,14.90
2018-07-26T04:18:20.427Z,15.60
2018-07-26T04:19:25.945Z,17.20
2018-07-26T04:20:31.465Z,15.70
2018-07-26T04:21:36.984Z,16.80
2018-07-26T04:22:42.502Z,16.30
2018-07-26T04:23:48.018Z,16.40
2018-07-26T04:24:53.539Z,14.10
2018-07-26T04:25:59.082Z,14.90
2018-07-26T04:27:04.572Z,14.50
2018-07-26T04:28:10.091Z,14.60
2018-07-26T04:29:15.615Z,14.90
2018-07-26T04:30:21.130Z,15.20
2018-07-26T04:31:26.648Z,15.00
2018-07-26T04:32:32.166Z,15.50
2018-07-26T04:33:37.680Z,15.80
2018-07-26T04:34:43.200Z,15.90
2018-07-26T04:35:48.719Z,16.00
2018-07-26T04:36:54.236Z,16.10
2018-07-26T04:37:59.752Z,15.70
2018-07-26T04:39:05.275Z,15.40
2018-07-26T04:40:10.791Z,15.30
2018-07-26T04:41:16.310Z,15.70
2018-07-26T04:42:21.830Z,20.80
2018-07-26T04:43:27.357Z,15.70
2018-07-26T04:44:32.868Z,15.70
2018-07-26T04:45:38.384Z,15.10
2018-07-26T04:46:43.902Z,15.10
2018-07-26T04:47:49.415Z,15.40
2018-07-26T04:48:54.963Z,15.20
2018-07-26T04:50:00.451Z,16.40
2018-07-26T04:51:05.976Z,18.00
2018-07-26T04:52:11.492Z,17.90
2018-07-26T04:53:17.006Z,17.90
2018-07-26T04:54:22.529Z,17.60
2018-07-26T04:55:28.043Z,18.30
2018-07-26T04:56:33.568Z,17.90
2018-07-26T04:57:39.079Z,18.40
2018-07-26T04:58:44.599Z,18.50
2018-07-26T04:59:50.116Z,18.90
2018-07-26T05:00:55.637Z,18.50
2018-07-26T05:02:01.157Z,18.70
2018-07-26T05:03:06.677Z,17.20
2018-07-26T05:04:12.191Z,17.60
2018-07-26T05:05:17.706Z,17.10
2018-07-26T05:06:23.225Z,16.90
2018-07-26T05:07:28.750Z,17.50
2018-07-26T05:08:34.278Z,16.20
2018-07-26T05:09:39.791Z,17.50
2018-07-26T05:10:45.306Z,16.60
2018-07-26T05:11:50.829Z,17.10
2018-07-26T05:12:57.106Z,18.00
2018-07-26T05:14:01.854Z,16.70
2018-07-26T05:15:07.382Z,16.70
2018-07-26T05:16:12.890Z,16.30
2018-07-26T05:17:18.406Z,17.30
2018-07-26T05:18:23.977Z,18.00
2018-07-26T05:19:29.448Z,16.50
2018-07-26T05:20:34.966Z,16.90
2018-07-26T05:21:40.487Z,16.00
2018-07-26T05:22:45.998Z,16.30
2018-07-26T05:23:51.519Z,16.30
2018-07-26T05:24:57.038Z,15.80
2018-07-26T05:26:02.560Z,16.60
2018-07-26T05:27:08.073Z,16.50
2018-07-26T05:28:13.597Z,17.50
2018-07-26T05:29:19.176Z,18.00
2018-07-26T05:30:24.639Z,17.50
2018-07-26T05:31:30.151Z,18.30
2018-07-26T05:32:35.665Z,29.40
2018-07-26T05:33:41.185Z,17.30
2018-07-26T05:34:46.706Z,18.00
2018-07-26T05:35:52.218Z,18.00
2018-07-26T05:36:57.744Z,19.20
2018-07-26T05:38:03.262Z,18.60
2018-07-26T05:39:08.779Z,17.60
2018-07-26T05:40:14.303Z,18.10
2018-07-26T05:41:19.818Z,18.20
2018-07-26T05:42:25.341Z,17.70
2018-07-26T05:43:30.862Z,18.60
2018-07-26T05:44:36.370Z,18.20
2018-07-26T05:45:41.888Z,18.30
2018-07-26T05:46:47.410Z,17.90
2018-07-26T05:47:52.937Z,18.80
2018-07-26T05:48:58.446Z,18.40
2018-07-26T05:50:03.962Z,18.70
2018-07-26T05:51:09.484Z,18.40
2018-07-26T05:52:15.011Z,19.10
2018-07-26T05:53:20.582Z,18.70
2018-07-26T05:54:26.037Z,17.30
2018-07-26T05:55:31.567Z,17.20
2018-07-26T05:56:37.078Z,17.40
2018-07-26T05:57:42.596Z,16.60
2018-07-26T05:58:48.116Z,18.30
2018-07-26T05:59:53.635Z,18.50
2018-07-26T06:00:59.152Z,18.30
2018-07-26T06:02:04.670Z,18.00
2018-07-26T06:03:10.193Z,17.10
2018-07-26T06:04:15.708Z,16.90
2018-07-26T06:05:21.229Z,17.30
2018-07-26T06:06:26.746Z,17.80
2018-07-26T06:07:32.271Z,18.00
2018-07-26T06:08:37.795Z,18.60
2018-07-26T06:09:43.368Z,17.10
2018-07-26T06:10:48.831Z,19.20
2018-07-26T06:11:54.344Z,16.90
2018-07-26T06:12:59.868Z,16.60
2018-07-26T06:14:05.385Z,17.60
2018-07-26T06:15:10.906Z,16.00
2018-07-26T06:16:16.422Z,18.40
2018-07-26T06:17:21.939Z,16.20
2018-07-26T06:18:27.463Z,17.70
2018-07-26T06:19:32.983Z,16.80
2018-07-26T06:20:38.520Z,16.70
2018-07-26T06:21:44.021Z,16.70
2018-07-26T06:22:49.543Z,16.80
2018-07-26T06:23:55.060Z,15.20
2018-07-26T06:25:00.569Z,15.80
2018-07-26T06:26:06.098Z,14.90
2018-07-26T06:27:11.615Z,19.00
2018-07-26T06:28:17.210Z,15.30
2018-07-26T06:29:22.657Z,15.40
2018-07-26T06:30:28.177Z,15.50
2018-07-26T06:31:33.692Z,15.10
2018-07-26T06:32:39.211Z,16.20
2018-07-26T06:33:44.729Z,15.10
2018-07-26T06:34:50.250Z,14.90
2018-07-26T06:35:55.775Z,15.20
2018-07-26T06:37:01.290Z,15.70
2018-07-26T06:38:06.815Z,15.10
2018-07-26T06:39:12.334Z,16.00
2018-07-26T06:40:17.853Z,14.70
2018-07-26T06:41:23.370Z,14.20
2018-07-26T06:42:28.892Z,14.20
2018-07-26T06:43:34.410Z,13.60
2018-07-26T06:44:39.930Z,13.70
2018-07-26T06:45:45.446Z,13.60
2018-07-26T06:46:50.970Z,13.70
2018-07-26T06:47:56.482Z,12.20
2018-07-26T06:49:02.017Z,12.30
2018-07-26T06:50:07.522Z,11.60
2018-07-26T06:51:13.040Z,11.20
2018-07-26T06:52:18.561Z,11.40
2018-07-26T06:53:24.089Z,11.80
2018-07-26T06:54:29.602Z,11.00
2018-07-26T06:55:35.122Z,11.20
2018-07-26T06:56:40.648Z,12.80
2018-07-26T06:57:46.159Z,10.90
2018-07-26T06:58:51.683Z,10.40
2018-07-26T06:59:57.201Z,11.30
2018-07-26T07:01:02.722Z,11.90
2018-07-26T07:02:08.250Z,12.90
2018-07-26T07:03:13.765Z,10.20
2018-07-26T07:04:19.281Z,9.50
2018-07-26T07:05:24.799Z,10.50
2018-07-26T07:06:30.322Z,10.20
2018-07-26T07:07:35.844Z,11.40
2018-07-26T07:08:41.360Z,10.70
2018-07-26T07:09:46.886Z,12.60
2018-07-26T07:10:52.400Z,10.30
2018-07-26T07:11:57.920Z,9.80
2018-07-26T07:13:03.449Z,13.40
2018-07-26T07:14:08.966Z,10.40
2018-07-26T07:15:14.480Z,12.80
2018-07-26T07:16:20.002Z,10.30
2018-07-26T07:17:25.525Z,9.90
2018-07-26T07:18:31.046Z,10.00
2018-07-26T07:19:36.565Z,8.80
2018-07-26T07:20:42.084Z,9.90
2018-07-26T07:21:47.602Z,9.00
2018-07-26T07:22:53.130Z,12.60
2018-07-26T07:23:58.642Z,10.00
2018-07-26T07:25:04.162Z,9.20
2018-07-26T07:26:09.702Z,9.20
2018-07-26T07:27:15.205Z,9.50
2018-07-26T07:28:20.722Z,9.60
2018-07-26T07:29:26.241Z,8.70
2018-07-26T07:30:31.762Z,11.70
2018-07-26T07:31:37.285Z,9.00
2018-07-26T07:32:42.805Z,10.40
2018-07-26T07:33:48.324Z,9.10
2018-07-26T07:34:53.849Z,9.40
2018-07-26T07:35:59.375Z,11.30
2018-07-26T07:37:04.887Z,9.50
2018-07-26T07:38:10.407Z,10.60
2018-07-26T07:39:15.929Z,9.20
2018-07-26T07:40:21.449Z,11.20
2018-07-26T07:41:27.021Z,8.60
2018-07-26T07:42:32.494Z,10.30
2018-07-26T07:43:38.016Z,11.10
2018-07-26T07:44:43.529Z,9.50
2018-07-26T07:45:49.049Z,8.90
2018-07-26T07:46:54.570Z,9.00
2018-07-26T07:48:00.096Z,10.50
2018-07-26T07:49:05.618Z,12.80
2018-07-26T07:50:11.142Z,7.90
2018-07-26T07:51:16.657Z,7.60
2018-07-26T07:52:22.182Z,8.00
2018-07-26T07:53:27.699Z,7.40
2018-07-26T07:54:33.216Z,11.40
2018-07-26T07:55:38.745Z,11.00
2018-07-26T07:56:44.272Z,7.50
2018-07-26T07:57:49.781Z,7.50
2018-07-26T07:58:55.306Z,7.20
2018-07-26T08:00:00.823Z,8.00
2018-07-26T08:01:06.347Z,9.30
2018-07-26T08:02:11.865Z,8.10
2018-07-26T08:03:17.389Z,8.80
2018-07-26T08:04:22.911Z,6.70
2018-07-26T08:05:28.435Z,6.20
2018-07-26T08:06:33.951Z,6.30
2018-07-26T08:07:39.478Z,8.90
2018-07-26T08:08:44.998Z,9.20
2018-07-26T08:09:50.518Z,7.30
2018-07-26T08:10:56.032Z,7.00
2018-07-26T08:12:01.560Z,8.10
2018-07-26T08:13:07.084Z,7.80
2018-07-26T08:14:12.598Z,8.30
2018-07-26T08:15:18.116Z,7.00
2018-07-26T08:16:23.649Z,7.70
2018-07-26T08:17:29.163Z,6.30
2018-07-26T08:18:34.683Z,7.10
2018-07-26T08:19:40.203Z,5.50
2018-07-26T08:20:45.725Z,7.30
2018-07-26T08:21:51.245Z,6.50
2018-07-26T08:22:56.768Z,6.70
2018-07-26T08:24:02.290Z,8.40
2018-07-26T08:25:07.814Z,5.60
2018-07-26T08:26:13.336Z,8.10
2018-07-26T08:27:18.856Z,6.60
2018-07-26T08:28:24.376Z,6.30
2018-07-26T08:29:29.942Z,7.80
2018-07-26T08:30:35.435Z,6.20
2018-07-26T08:31:40.950Z,5.50
2018-07-26T08:32:46.465Z,6.00
2018-07-26T08:33:51.982Z,6.10
2018-07-26T08:34:57.517Z,8.00
2018-07-26T08:36:03.036Z,8.80
2018-07-26T08:37:08.552Z,7.00
2018-07-26T08:38:14.072Z,9.10
2018-07-26T08:39:19.594Z,7.80
2018-07-26T08:40:25.127Z,8.40
2018-07-26T08:41:30.637Z,8.40
2018-07-26T08:42:36.166Z,7.80
2018-07-26T08:43:41.718Z,7.60
2018-07-26T08:44:47.202Z,9.30
2018-07-26T08:45:52.730Z,6.70
2018-07-26T08:46:58.249Z,5.90
2018-07-26T08:48:03.781Z,8.30
2018-07-26T08:49:09.291Z,13.40
2018-07-26T08:50:14.813Z,6.20
2018-07-26T08:51:20.337Z,6.40
2018-07-26T08:52:25.860Z,6.00
2018-07-26T08:53:31.379Z,7.10
2018-07-26T08:54:36.902Z,6.30
2018-07-26T08:55:42.423Z,7.00
2018-07-26T08:56:47.949Z,5.80
2018-07-26T08:57:53.473Z,7.00
2018-07-26T08:58:58.990Z,4.80
2018-07-26T09:00:04.522Z,5.60
2018-07-26T09:01:10.097Z,4.30
2018-07-26T09:02:15.552Z,7.70
2018-07-26T09:03:21.079Z,5.80
2018-07-26T09:04:26.605Z,7.00
2018-07-26T09:05:32.124Z,4.60
2018-07-26T09:06:37.654Z,5.30
2018-07-26T09:07:43.175Z,5.20
2018-07-26T09:08:48.699Z,6.20
2018-07-26T09:09:54.251Z,5.90
2018-07-26T09:10:59.763Z,5.60
2018-07-26T09:12:05.269Z,4.80
2018-07-26T09:13:10.791Z,4.80
2018-07-26T09:14:16.311Z,5.50
2018-07-26T09:15:21.829Z,7.60
2018-07-26T09:16:27.351Z,5.80
2018-07-26T09:17:32.877Z,6.90
2018-07-26T09:18:38.398Z,6.60
2018-07-26T09:19:43.975Z,8.20
2018-07-26T09:20:49.444Z,7.70
2018-07-26T09:21:54.968Z,7.70
2018-07-26T09:23:00.509Z,8.40
2018-07-26T09:24:06.016Z,6.70
2018-07-26T09:25:11.539Z,9.20
2018-07-26T09:26:17.107Z,9.20
2018-07-26T09:27:22.587Z,8.10
2018-07-26T09:28:28.106Z,8.30
2018-07-26T09:29:33.633Z,8.80
2018-07-26T09:30:39.158Z,6.70
2018-07-26T09:31:44.682Z,9.70
2018-07-26T09:32:50.240Z,8.30
2018-07-26T09:33:55.722Z,5.90
2018-07-26T09:35:01.246Z,6.20
2018-07-26T09:36:06.774Z,6.60
2018-07-26T09:37:12.306Z,4.80
2018-07-26T09:38:17.824Z,5.50
2018-07-26T09:39:23.342Z,8.00
2018-07-26T09:40:28.866Z,6.40
2018-07-26T09:41:34.391Z,6.90
2018-07-26T09:42:39.916Z,7.70
2018-07-26T09:43:45.432Z,5.40
2018-07-26T09:44:50.965Z,5.20
2018-07-26T09:45:56.480Z,6.20
2018-07-26T09:47:02.005Z,5.40
2018-07-26T09:48:07.532Z,6.30
2018-07-26T09:49:13.055Z,8.70
2018-07-26T09:50:18.574Z,5.40
2018-07-26T09:51:24.101Z,7.50
2018-07-26T09:52:29.620Z,6.20
2018-07-26T09:53:35.146Z,6.60
2018-07-26T09:54:40.671Z,8.10
2018-07-26T09:55:46.195Z,6.10
2018-07-26T09:56:51.719Z,7.70
2018-07-26T09:57:57.241Z,5.30
2018-07-26T09:59:02.768Z,7.90
2018-07-26T10:00:08.292Z,5.30
2018-07-26T10:01:13.814Z,5.40
2018-07-26T10:02:19.344Z,4.80
2018-07-26T10:03:24.865Z,6.90
2018-07-26T10:04:30.386Z,5.10
2018-07-26T10:05:35.910Z,4.80
2018-07-26T10:06:41.436Z,6.40
2018-07-26T10:07:46.955Z,6.90
2018-07-26T10:08:52.494Z,5.90
2018-07-26T10:09:58.021Z,6.50
2018-07-26T10:11:03.531Z,5.50
2018-07-26T10:12:09.056Z,4.90
2018-07-26T10:13:14.586Z,5.40
2018-07-26T10:14:20.106Z,4.60
2018-07-26T10:15:25.629Z,6.00
2018-07-26T10:16:31.156Z,5.10
2018-07-26T10:17:36.679Z,4.70
2018-07-26T10:18:42.203Z,4.20
2018-07-26T10:19:47.726Z,4.10
2018-07-26T10:20:53.252Z,6.40
2018-07-26T10:21:58.779Z,5.50
2018-07-26T10:23:04.304Z,5.20
2018-07-26T10:24:09.830Z,6.00
2018-07-26T10:25:15.349Z,4.40
2018-07-26T10:26:20.884Z,4.10
2018-07-26T10:27:26.404Z,5.00
2018-07-26T10:28:31.921Z,6.20
2018-07-26T10:29:37.449Z,4.80
2018-07-26T10:30:42.971Z,4.10
2018-07-26T10:31:48.497Z,6.20
2018-07-26T10:32:54.028Z,5.80
2018-07-26T10:33:59.545Z,6.00
2018-07-26T10:35:05.073Z,4.30
2018-07-26T10:36:10.597Z,5.10
2018-07-26T10:37:16.126Z,5.90
2018-07-26T10:38:21.648Z,6.00
2018-07-26T10:39:27.171Z,4.20
2018-07-26T10:40:32.699Z,3.70
2018-07-26T10:41:38.228Z,4.20
2018-07-26T10:42:43.757Z,4.10
2018-07-26T10:43:49.277Z,4.60
2018-07-26T10:44:54.796Z,14.50
2018-07-26T10:46:00.320Z,4.90
2018-07-26T10:47:05.849Z,3.30
2018-07-26T10:48:11.375Z,4.70
2018-07-26T10:49:16.903Z,3.20
2018-07-26T10:50:22.422Z,3.90
2018-07-26T10:51:27.949Z,3.10
2018-07-26T10:52:34.234Z,3.30
2018-07-26T10:53:39.001Z,4.00
2018-07-26T10:54:44.521Z,2.90
2018-07-26T10:55:50.049Z,4.50
2018-07-26T10:56:55.574Z,4.90
2018-07-26T10:58:01.103Z,3.50
2018-07-26T10:59:06.629Z,4.30
2018-07-26T11:00:12.208Z,4.60
2018-07-26T11:01:17.683Z,3.80
2018-07-26T11:02:23.237Z,4.00
2018-07-26T11:03:28.725Z,4.50
2018-07-26T11:04:34.246Z,3.80
2018-07-26T11:05:39.775Z,5.70
2018-07-26T11:06:45.303Z,3.50
2018-07-26T11:07:50.828Z,6.70
2018-07-26T11:08:56.351Z,3.50
2018-07-26T11:10:01.895Z,6.20
2018-07-26T11:11:07.403Z,4.80
2018-07-26T11:12:12.930Z,2.90
2018-07-26T11:13:18.465Z,4.40
2018-07-26T11:14:23.982Z,3.30
2018-07-26T11:15:29.514Z,3.50
2018-07-26T11:16:35.070Z,4.30
2018-07-26T11:17:40.555Z,3.50
2018-07-26T11:18:46.083Z,3.80
2018-07-26T11:19:51.608Z,3.10
2018-07-26T11:20:57.140Z,2.70
2018-07-26T11:22:02.667Z,3.00
2018-07-26T11:23:08.184Z,5.50
2018-07-26T11:24:13.716Z,5.30
2018-07-26T11:25:19.246Z,4.20
2018-07-26T11:26:24.764Z,2.90
2018-07-26T11:27:30.289Z,3.70
2018-07-26T11:28:35.813Z,5.10
2018-07-26T11:29:41.357Z,6.20
2018-07-26T11:30:46.867Z,2.80
2018-07-26T11:31:52.389Z,4.80
2018-07-26T11:32:57.920Z,3.60
2018-07-26T11:34:03.445Z,3.10
2018-07-26T11:35:08.969Z,4.50
2018-07-26T11:36:14.495Z,4.30
2018-07-26T11:37:20.020Z,2.50
2018-07-26T11:38:25.549Z,2.90
2018-07-26T11:39:31.071Z,3.70
2018-07-26T11:40:36.608Z,3.30
2018-07-26T11:41:42.130Z,3.70
2018-07-26T11:42:47.656Z,3.90
2018-07-26T11:43:53.179Z,3.20
2018-07-26T11:44:58.705Z,3.10
2018-07-26T11:46:04.234Z,5.50
2018-07-26T11:47:09.761Z,4.70
2018-07-26T11:48:15.285Z,3.80
2018-07-26T11:49:20.808Z,3.40
2018-07-26T11:50:26.339Z,4.80
2018-07-26T11:51:31.861Z,5.10
2018-07-26T11:52:37.408Z,4.80
2018-07-26T11:53:42.918Z,3.80
2018-07-26T11:54:48.441Z,4.20
2018-07-26T11:55:53.969Z,4.30
2018-07-26T11:56:59.555Z,4.20
2018-07-26T11:58:05.019Z,3.40
2018-07-26T11:59:10.541Z,3.90
2018-07-26T12:00:16.070Z,4.90
2018-07-26T12:01:21.595Z,4.30
2018-07-26T12:02:27.180Z,6.20
2018-07-26T12:03:32.659Z,4.90
2018-07-26T12:04:38.193Z,3.50
2018-07-26T12:05:43.701Z,4.20
2018-07-26T12:06:49.229Z,5.20
2018-07-26T12:07:54.757Z,4.30
2018-07-26T12:09:00.278Z,4.30
2018-07-26T12:10:05.817Z,4.20
2018-07-26T12:11:11.339Z,6.90
2018-07-26T12:12:16.861Z,5.10
2018-07-26T12:13:22.391Z,4.10
2018-07-26T12:14:28.012Z,3.80
2018-07-26T12:15:33.440Z,3.70
2018-07-26T12:16:38.966Z,5.00
2018-07-26T12:17:44.547Z,4.00
2018-07-26T12:18:50.027Z,5.60
2018-07-26T12:19:55.545Z,5.50
2018-07-26T12:21:01.076Z,6.00
2018-07-26T12:22:06.598Z,6.00
2018-07-26T12:23:12.147Z,5.20
2018-07-26T12:24:17.657Z,4.80
2018-07-26T12:25:23.179Z,4.60
2018-07-26T12:26:28.707Z,5.10
2018-07-26T12:27:34.230Z,6.10
2018-07-26T12:28:39.769Z,5.80
2018-07-26T12:29:45.292Z,3.20
2018-07-26T12:30:50.811Z,3.70
2018-07-26T12:31:56.340Z,3.90
2018-07-26T12:33:01.866Z,4.10
2018-07-26T12:34:07.395Z,3.60
2018-07-26T12:35:12.926Z,3.10
2018-07-26T12:36:18.441Z,2.90
2018-07-26T12:37:23.971Z,5.60
2018-07-26T12:38:29.500Z,3.50
2018-07-26T12:39:35.024Z,4.90
2018-07-26T12:40:40.554Z,3.00
2018-07-26T12:41:46.080Z,4.70
2018-07-26T12:42:51.611Z,4.60
2018-07-26T12:43:57.132Z,4.30
2018-07-26T12:45:02.656Z,5.50
2018-07-26T12:46:08.184Z,3.40
2018-07-26T12:47:13.715Z,2.60
2018-07-26T12:48:19.238Z,5.40
2018-07-26T12:49:24.775Z,5.70
2018-07-26T12:50:30.289Z,3.20
2018-07-26T12:51:35.817Z,3.00
2018-07-26T12:52:41.345Z,3.30
2018-07-26T12:53:46.879Z,5.30
2018-07-26T12:54:52.418Z,3.50
2018-07-26T12:55:57.926Z,2.50
2018-07-26T12:57:03.445Z,5.60
2018-07-26T12:58:08.977Z,4.50
2018-07-26T12:59:14.505Z,3.70
2018-07-26T13:00:20.033Z,4.00
2018-07-26T13:01:25.599Z,4.20
2018-07-26T13:02:31.089Z,3.20
2018-07-26T13:03:36.622Z,3.80
2018-07-26T13:04:42.151Z,3.20
2018-07-26T13:05:47.668Z,5.40
2018-07-26T13:06:53.256Z,3.60
2018-07-26T13:07:58.718Z,3.50
2018-07-26T13:09:04.248Z,2.90
2018-07-26T13:22:16.496Z,2.80
2018-07-26T13:23:22.022Z,2.90
2018-07-26T13:25:21.028Z,3.90
2018-07-26T13:26:26.537Z,2.30
2018-07-26T13:28:24.996Z,4.20
2018-07-26T13:29:30.506Z,4.60
2018-07-26T13:31:28.937Z,3.20
2018-07-26T13:32:34.458Z,3.10
2018-07-26T13:34:32.994Z,3.40
2018-07-26T13:35:38.500Z,4.10
2018-07-26T13:37:37.001Z,5.10
2018-07-26T13:38:42.523Z,3.20
2018-07-26T13:40:41.037Z,4.60
2018-07-26T13:41:46.541Z,3.70
2018-07-26T13:43:45.042Z,3.80
2018-07-26T13:44:50.561Z,4.30
2018-07-26T13:46:49.092Z,2.50
2018-07-26T13:47:54.585Z,4.00
2018-07-26T13:49:53.098Z,6.40
2018-07-26T13:50:58.603Z,3.10
2018-07-26T13:52:57.104Z,5.10
2018-07-26T13:54:02.625Z,5.70
2018-07-26T13:56:01.138Z,5.00
2018-07-26T13:57:06.647Z,4.60
2018-07-26T13:59:05.147Z,3.60
2018-07-26T14:00:10.665Z,2.90
2018-07-26T14:02:09.173Z,3.50
2018-07-26T14:03:14.686Z,3.80
2018-07-26T14:05:13.197Z,3.70
2018-07-26T14:06:18.706Z,2.40
2018-07-26T14:08:17.204Z,4.30
2018-07-26T14:09:22.734Z,4.80
2018-07-26T14:11:21.237Z,3.40
2018-07-26T14:12:26.745Z,2.90
2018-07-26T14:14:25.258Z,3.90
2018-07-26T14:15:30.827Z,3.30
2018-07-26T14:17:29.293Z,3.80
2018-07-26T14:18:34.790Z,4.20
2018-07-26T14:20:33.807Z,2.50
2018-07-26T14:21:39.318Z,3.80
2018-07-26T14:23:37.936Z,3.40
2018-07-26T14:24:43.456Z,4.70
2018-07-26T14:25:48.985Z,4.60
2018-07-26T14:26:54.506Z,3.40
2018-07-26T14:28:00.037Z,3.90
2018-07-26T14:29:05.560Z,3.80
2018-07-26T14:30:11.089Z,2.30
2018-07-26T14:31:16.604Z,2.60
2018-07-26T14:32:22.134Z,3.10
2018-07-26T14:33:27.667Z,5.00
2018-07-26T14:34:33.197Z,3.20
2018-07-26T14:35:38.720Z,4.10
2018-07-26T14:36:44.239Z,4.50
2018-07-26T14:37:49.763Z,4.10
2018-07-26T14:38:55.291Z,4.10
2018-07-26T14:40:00.815Z,4.00
2018-07-26T14:41:06.341Z,3.20
2018-07-26T14:42:11.867Z,4.60
2018-07-26T14:43:17.394Z,3.90
2018-07-26T14:44:22.923Z,4.70
2018-07-26T14:45:28.440Z,3.40
2018-07-26T14:46:33.971Z,4.40